sensor_id;sensor_type;location;lat;lon;timestamp;P1;durP1;ratioP1;P2;durP2;ratioP2
16159;SDS011;8185;57.818;15.224;2023-04-25T00:00:24;0.83;;;0.70;;
16159;SDS011;8185;57.818;15.224;2023-04-25T00:02:51;1.97;;;0.80;;
16159;SDS011;8185;57.818;15.224;2023-04-25T00:05:18;0.80;;;0.80;;
16159;SDS011;8185;57.818;15.224;2023-04-25T00:07:49;1.40;;;0.90;;
16159;SDS011;8185;57.818;15.224;2023-04-25T00:10:16;1.77;;;1.30;;
16159;SDS011;8185;57.818;15.224;2023-04-25T00:12:44;1.87;;;0.63;;
16159;SDS011;8185;57.818;15.224;2023-04-25T00:15:12;1.10;;;1.00;;
16159;SDS011;8185;57.818;15.224;2023-04-25T00:17:39;1.10;;;1.00;;
16159;SDS011;8185;57.818;15.224;2023-04-25T00:20:06;0.80;;;0.80;;
16159;SDS011;8185;57.818;15.224;2023-04-25T00:22:35;0.90;;;0.80;;
16159;SDS011;8185;57.818;15.224;2023-04-25T00:25:05;0.93;;;0.80;;
16159;SDS011;8185;57.818;15.224;2023-04-25T00:27:33;1.13;;;1.00;;
16159;SDS011;8185;57.818;15.224;2023-04-25T00:30:00;1.40;;;1.10;;
16159;SDS011;8185;57.818;15.224;2023-04-25T00:32:27;1.10;;;0.80;;
16159;SDS011;8185;57.818;15.224;2023-04-25T00:34:54;1.23;;;0.80;;
16159;SDS011;8185;57.818;15.224;2023-04-25T00:37:22;1.60;;;1.00;;
16159;SDS011;8185;57.818;15.224;2023-04-25T00:39:50;1.37;;;1.00;;
16159;SDS011;8185;57.818;15.224;2023-04-25T00:42:20;1.13;;;1.03;;
16159;SDS011;8185;57.818;15.224;2023-04-25T00:44:47;2.33;;;0.87;;
16159;SDS011;8185;57.818;15.224;2023-04-25T00:47:15;1.37;;;1.27;;
16159;SDS011;8185;57.818;15.224;2023-04-25T00:49:42;1.63;;;1.00;;
16159;SDS011;8185;57.818;15.224;2023-04-25T00:52:10;1.20;;;1.07;;
16159;SDS011;8185;57.818;15.224;2023-04-25T00:54:37;1.00;;;0.90;;
16159;SDS011;8185;57.818;15.224;2023-04-25T00:57:05;1.10;;;1.00;;
16159;SDS011;8185;57.818;15.224;2023-04-25T00:59:33;4.57;;;1.20;;
16159;SDS011;8185;57.818;15.224;2023-04-25T01:02:02;1.10;;;1.00;;
16159;SDS011;8185;57.818;15.224;2023-04-25T01:04:30;1.00;;;0.90;;
16159;SDS011;8185;57.818;15.224;2023-04-25T01:06:57;1.30;;;1.20;;
16159;SDS011;8185;57.818;15.224;2023-04-25T01:09:24;1.63;;;1.03;;
16159;SDS011;8185;57.818;15.224;2023-04-25T01:11:52;0.70;;;0.70;;
16159;SDS011;8185;57.818;15.224;2023-04-25T01:14:19;1.63;;;1.00;;
16159;SDS011;8185;57.818;15.224;2023-04-25T01:16:48;0.80;;;0.80;;
16159;SDS011;8185;57.818;15.224;2023-04-25T01:19:16;0.90;;;0.80;;
16159;SDS011;8185;57.818;15.224;2023-04-25T01:21:46;1.30;;;1.00;;
16159;SDS011;8185;57.818;15.224;2023-04-25T01:24:14;1.30;;;1.00;;
16159;SDS011;8185;57.818;15.224;2023-04-25T01:26:41;1.90;;;1.30;;
16159;SDS011;8185;57.818;15.224;2023-04-25T01:29:14;1.10;;;0.90;;
16159;SDS011;8185;57.818;15.224;2023-04-25T01:31:42;1.53;;;1.10;;
16159;SDS011;8185;57.818;15.224;2023-04-25T01:34:10;1.70;;;1.07;;
16159;SDS011;8185;57.818;15.224;2023-04-25T01:36:37;1.70;;;1.10;;
16159;SDS011;8185;57.818;15.224;2023-04-25T01:39:07;4.60;;;1.20;;
16159;SDS011;8185;57.818;15.224;2023-04-25T01:41:34;1.83;;;1.47;;
16159;SDS011;8185;57.818;15.224;2023-04-25T01:44:02;4.57;;;1.53;;
16159;SDS011;8185;57.818;15.224;2023-04-25T01:46:29;4.13;;;1.67;;
16159;SDS011;8185;57.818;15.224;2023-04-25T01:48:56;3.23;;;1.20;;
16159;SDS011;8185;57.818;15.224;2023-04-25T01:51:24;1.67;;;1.40;;
16159;SDS011;8185;57.818;15.224;2023-04-25T01:53:51;2.80;;;1.63;;
16159;SDS011;8185;57.818;15.224;2023-04-25T01:56:21;2.63;;;1.60;;
16159;SDS011;8185;57.818;15.224;2023-04-25T01:58:48;3.17;;;1.63;;
16159;SDS011;8185;57.818;15.224;2023-04-25T02:01:16;2.40;;;1.87;;
16159;SDS011;8185;57.818;15.224;2023-04-25T02:03:43;3.13;;;2.13;;
16159;SDS011;8185;57.818;15.224;2023-04-25T02:06:10;4.03;;;1.97;;
16159;SDS011;8185;57.818;15.224;2023-04-25T02:08:37;2.73;;;1.97;;
16159;SDS011;8185;57.818;15.224;2023-04-25T02:11:04;6.90;;;2.07;;
16159;SDS011;8185;57.818;15.224;2023-04-25T02:13:33;9.97;;;3.60;;
16159;SDS011;8185;57.818;15.224;2023-04-25T02:16:00;6.60;;;2.83;;
16159;SDS011;8185;57.818;15.224;2023-04-25T02:18:27;4.43;;;2.33;;
16159;SDS011;8185;57.818;15.224;2023-04-25T02:20:55;9.40;;;2.70;;
16159;SDS011;8185;57.818;15.224;2023-04-25T02:23:22;5.57;;;2.40;;
16159;SDS011;8185;57.818;15.224;2023-04-25T02:25:49;13.23;;;3.40;;
16159;SDS011;8185;57.818;15.224;2023-04-25T02:28:16;12.27;;;2.90;;
16159;SDS011;8185;57.818;15.224;2023-04-25T02:30:45;6.73;;;3.37;;
16159;SDS011;8185;57.818;15.224;2023-04-25T02:33:12;11.00;;;3.27;;
16159;SDS011;8185;57.818;15.224;2023-04-25T02:35:42;6.43;;;3.10;;
16159;SDS011;8185;57.818;15.224;2023-04-25T02:38:09;6.10;;;3.30;;
16159;SDS011;8185;57.818;15.224;2023-04-25T02:40:36;9.10;;;3.33;;
16159;SDS011;8185;57.818;15.224;2023-04-25T02:43:03;7.47;;;2.97;;
16159;SDS011;8185;57.818;15.224;2023-04-25T02:45:31;5.00;;;3.07;;
16159;SDS011;8185;57.818;15.224;2023-04-25T02:47:59;12.10;;;3.10;;
16159;SDS011;8185;57.818;15.224;2023-04-25T02:50:26;9.73;;;3.70;;
16159;SDS011;8185;57.818;15.224;2023-04-25T02:52:54;6.77;;;3.40;;
16159;SDS011;8185;57.818;15.224;2023-04-25T02:55:21;5.80;;;3.47;;
16159;SDS011;8185;57.818;15.224;2023-04-25T02:57:48;5.30;;;3.27;;
16159;SDS011;8185;57.818;15.224;2023-04-25T03:00:15;9.30;;;3.40;;
16159;SDS011;8185;57.818;15.224;2023-04-25T03:02:43;9.23;;;3.50;;
16159;SDS011;8185;57.818;15.224;2023-04-25T03:05:11;8.37;;;3.70;;
16159;SDS011;8185;57.818;15.224;2023-04-25T03:07:38;5.90;;;3.77;;
16159;SDS011;8185;57.818;15.224;2023-04-25T03:10:06;8.27;;;5.67;;
16159;SDS011;8185;57.818;15.224;2023-04-25T03:12:33;6.80;;;3.50;;
16159;SDS011;8185;57.818;15.224;2023-04-25T03:15:01;5.53;;;4.00;;
16159;SDS011;8185;57.818;15.224;2023-04-25T03:17:28;5.20;;;3.33;;
16159;SDS011;8185;57.818;15.224;2023-04-25T03:19:56;5.57;;;3.60;;
16159;SDS011;8185;57.818;15.224;2023-04-25T03:22:25;5.83;;;3.80;;
16159;SDS011;8185;57.818;15.224;2023-04-25T03:24:52;7.83;;;3.77;;
16159;SDS011;8185;57.818;15.224;2023-04-25T03:27:19;4.73;;;3.47;;
16159;SDS011;8185;57.818;15.224;2023-04-25T03:29:47;7.70;;;3.63;;
16159;SDS011;8185;57.818;15.224;2023-04-25T03:32:14;6.40;;;3.87;;
16159;SDS011;8185;57.818;15.224;2023-04-25T03:34:41;5.60;;;3.60;;
16159;SDS011;8185;57.818;15.224;2023-04-25T03:37:08;7.60;;;3.60;;
16159;SDS011;8185;57.818;15.224;2023-04-25T03:39:37;5.67;;;3.53;;
16159;SDS011;8185;57.818;15.224;2023-04-25T03:42:04;5.13;;;3.60;;
16159;SDS011;8185;57.818;15.224;2023-04-25T03:44:31;5.73;;;3.83;;
16159;SDS011;8185;57.818;15.224;2023-04-25T03:46:58;7.10;;;4.20;;
16159;SDS011;8185;57.818;15.224;2023-04-25T03:49:25;9.70;;;3.90;;
16159;SDS011;8185;57.818;15.224;2023-04-25T03:51:53;6.03;;;4.10;;
16159;SDS011;8185;57.818;15.224;2023-04-25T03:54:20;7.03;;;3.83;;
16159;SDS011;8185;57.818;15.224;2023-04-25T03:56:48;7.77;;;4.23;;
16159;SDS011;8185;57.818;15.224;2023-04-25T03:59:15;12.30;;;4.40;;
16159;SDS011;8185;57.818;15.224;2023-04-25T04:01:43;6.97;;;4.23;;
16159;SDS011;8185;57.818;15.224;2023-04-25T04:04:10;6.90;;;4.97;;
16159;SDS011;8185;57.818;15.224;2023-04-25T04:06:37;6.57;;;4.00;;
16159;SDS011;8185;57.818;15.224;2023-04-25T04:09:05;8.63;;;4.87;;
16159;SDS011;8185;57.818;15.224;2023-04-25T04:11:36;6.33;;;4.13;;
16159;SDS011;8185;57.818;15.224;2023-04-25T04:14:05;7.73;;;4.33;;
16159;SDS011;8185;57.818;15.224;2023-04-25T04:16:32;6.77;;;4.53;;
16159;SDS011;8185;57.818;15.224;2023-04-25T04:18:59;6.83;;;4.43;;
16159;SDS011;8185;57.818;15.224;2023-04-25T04:21:27;6.67;;;4.63;;
16159;SDS011;8185;57.818;15.224;2023-04-25T04:23:54;6.93;;;4.60;;
16159;SDS011;8185;57.818;15.224;2023-04-25T04:26:22;8.40;;;4.57;;
16159;SDS011;8185;57.818;15.224;2023-04-25T04:28:51;6.60;;;4.67;;
16159;SDS011;8185;57.818;15.224;2023-04-25T04:31:20;6.83;;;4.30;;
16159;SDS011;8185;57.818;15.224;2023-04-25T04:33:48;6.87;;;4.57;;
16159;SDS011;8185;57.818;15.224;2023-04-25T04:36:16;5.93;;;4.70;;
16159;SDS011;8185;57.818;15.224;2023-04-25T04:38:45;6.10;;;4.37;;
16159;SDS011;8185;57.818;15.224;2023-04-25T04:41:12;5.63;;;4.50;;
16159;SDS011;8185;57.818;15.224;2023-04-25T04:43:39;7.20;;;4.93;;
16159;SDS011;8185;57.818;15.224;2023-04-25T04:46:07;5.63;;;4.40;;
16159;SDS011;8185;57.818;15.224;2023-04-25T04:48:36;5.77;;;4.17;;
16159;SDS011;8185;57.818;15.224;2023-04-25T04:51:05;4.70;;;4.03;;
16159;SDS011;8185;57.818;15.224;2023-04-25T04:53:32;5.57;;;4.17;;
16159;SDS011;8185;57.818;15.224;2023-04-25T04:55:59;5.93;;;4.03;;
16159;SDS011;8185;57.818;15.224;2023-04-25T04:58:27;4.43;;;3.80;;
16159;SDS011;8185;57.818;15.224;2023-04-25T05:00:55;4.70;;;3.90;;
16159;SDS011;8185;57.818;15.224;2023-04-25T05:03:23;5.90;;;3.97;;
16159;SDS011;8185;57.818;15.224;2023-04-25T05:05:51;5.40;;;4.17;;
16159;SDS011;8185;57.818;15.224;2023-04-25T05:08:18;5.50;;;4.27;;
16159;SDS011;8185;57.818;15.224;2023-04-25T05:10:46;6.83;;;4.50;;
16159;SDS011;8185;57.818;15.224;2023-04-25T05:13:13;6.97;;;4.27;;
16159;SDS011;8185;57.818;15.224;2023-04-25T05:15:40;5.17;;;4.00;;
16159;SDS011;8185;57.818;15.224;2023-04-25T05:18:07;4.27;;;3.70;;
16159;SDS011;8185;57.818;15.224;2023-04-25T05:20:35;5.97;;;4.50;;
16159;SDS011;8185;57.818;15.224;2023-04-25T05:23:03;5.50;;;4.00;;
16159;SDS011;8185;57.818;15.224;2023-04-25T05:25:30;4.17;;;3.77;;
16159;SDS011;8185;57.818;15.224;2023-04-25T05:27:57;6.33;;;4.43;;
16159;SDS011;8185;57.818;15.224;2023-04-25T05:30:25;5.37;;;4.13;;
16159;SDS011;8185;57.818;15.224;2023-04-25T05:32:52;7.77;;;4.13;;
16159;SDS011;8185;57.818;15.224;2023-04-25T05:35:19;7.00;;;4.67;;
16159;SDS011;8185;57.818;15.224;2023-04-25T05:37:46;6.40;;;4.80;;
16159;SDS011;8185;57.818;15.224;2023-04-25T05:40:15;6.20;;;4.33;;
16159;SDS011;8185;57.818;15.224;2023-04-25T05:42:42;6.70;;;5.07;;
16159;SDS011;8185;57.818;15.224;2023-04-25T05:45:10;7.73;;;5.20;;
16159;SDS011;8185;57.818;15.224;2023-04-25T05:47:38;7.43;;;5.77;;
16159;SDS011;8185;57.818;15.224;2023-04-25T05:50:06;6.93;;;5.07;;
16159;SDS011;8185;57.818;15.224;2023-04-25T05:52:34;6.93;;;5.20;;
16159;SDS011;8185;57.818;15.224;2023-04-25T05:55:02;6.40;;;5.23;;
16159;SDS011;8185;57.818;15.224;2023-04-25T05:57:31;6.30;;;4.93;;
16159;SDS011;8185;57.818;15.224;2023-04-25T05:59:58;7.73;;;5.50;;
16159;SDS011;8185;57.818;15.224;2023-04-25T06:02:25;6.30;;;5.13;;
16159;SDS011;8185;57.818;15.224;2023-04-25T06:04:52;7.90;;;6.37;;
16159;SDS011;8185;57.818;15.224;2023-04-25T06:07:20;6.87;;;5.30;;
16159;SDS011;8185;57.818;15.224;2023-04-25T06:09:47;6.80;;;5.57;;
16159;SDS011;8185;57.818;15.224;2023-04-25T06:12:14;7.00;;;5.40;;
16159;SDS011;8185;57.818;15.224;2023-04-25T06:14:43;6.53;;;5.73;;
16159;SDS011;8185;57.818;15.224;2023-04-25T06:17:10;6.37;;;5.30;;
16159;SDS011;8185;57.818;15.224;2023-04-25T06:19:38;6.37;;;5.30;;
16159;SDS011;8185;57.818;15.224;2023-04-25T06:22:07;7.00;;;5.47;;
16159;SDS011;8185;57.818;15.224;2023-04-25T06:24:34;6.77;;;5.83;;
16159;SDS011;8185;57.818;15.224;2023-04-25T06:27:01;6.83;;;5.90;;
16159;SDS011;8185;57.818;15.224;2023-04-25T06:29:29;6.80;;;5.90;;
16159;SDS011;8185;57.818;15.224;2023-04-25T06:31:57;8.10;;;5.60;;
16159;SDS011;8185;57.818;15.224;2023-04-25T06:34:25;6.67;;;5.97;;
16159;SDS011;8185;57.818;15.224;2023-04-25T06:36:52;6.57;;;5.30;;
16159;SDS011;8185;57.818;15.224;2023-04-25T06:39:19;6.97;;;5.73;;
16159;SDS011;8185;57.818;15.224;2023-04-25T06:41:48;6.67;;;5.50;;
16159;SDS011;8185;57.818;15.224;2023-04-25T06:44:15;8.83;;;6.70;;
16159;SDS011;8185;57.818;15.224;2023-04-25T06:46:43;8.30;;;6.00;;
16159;SDS011;8185;57.818;15.224;2023-04-25T06:49:12;7.60;;;6.33;;
16159;SDS011;8185;57.818;15.224;2023-04-25T06:51:40;6.60;;;5.33;;
16159;SDS011;8185;57.818;15.224;2023-04-25T06:54:07;6.47;;;5.80;;
16159;SDS011;8185;57.818;15.224;2023-04-25T06:56:34;8.50;;;6.47;;
16159;SDS011;8185;57.818;15.224;2023-04-25T06:59:02;6.67;;;5.80;;
16159;SDS011;8185;57.818;15.224;2023-04-25T07:01:29;7.60;;;6.07;;
16159;SDS011;8185;57.818;15.224;2023-04-25T07:03:56;8.43;;;6.73;;
16159;SDS011;8185;57.818;15.224;2023-04-25T07:06:25;6.63;;;5.83;;
16159;SDS011;8185;57.818;15.224;2023-04-25T07:08:53;7.60;;;6.30;;
16159;SDS011;8185;57.818;15.224;2023-04-25T07:11:20;6.67;;;5.93;;
16159;SDS011;8185;57.818;15.224;2023-04-25T07:13:48;6.40;;;5.80;;
16159;SDS011;8185;57.818;15.224;2023-04-25T07:16:15;7.17;;;5.30;;
16159;SDS011;8185;57.818;15.224;2023-04-25T07:18:43;10.60;;;5.60;;
16159;SDS011;8185;57.818;15.224;2023-04-25T07:21:10;7.23;;;6.03;;
16159;SDS011;8185;57.818;15.224;2023-04-25T07:23:39;6.53;;;5.57;;
16159;SDS011;8185;57.818;15.224;2023-04-25T07:26:06;7.00;;;6.20;;
16159;SDS011;8185;57.818;15.224;2023-04-25T07:28:34;7.80;;;6.53;;
16159;SDS011;8185;57.818;15.224;2023-04-25T07:31:01;8.03;;;5.83;;
16159;SDS011;8185;57.818;15.224;2023-04-25T07:33:28;6.63;;;5.40;;
16159;SDS011;8185;57.818;15.224;2023-04-25T07:35:56;7.37;;;5.93;;
16159;SDS011;8185;57.818;15.224;2023-04-25T07:38:23;12.23;;;8.83;;
16159;SDS011;8185;57.818;15.224;2023-04-25T07:40:52;6.90;;;6.13;;
16159;SDS011;8185;57.818;15.224;2023-04-25T07:43:19;9.73;;;8.83;;
16159;SDS011;8185;57.818;15.224;2023-04-25T07:45:46;7.00;;;6.40;;
16159;SDS011;8185;57.818;15.224;2023-04-25T07:48:16;6.30;;;5.70;;
16159;SDS011;8185;57.818;15.224;2023-04-25T07:50:44;5.80;;;5.20;;
16159;SDS011;8185;57.818;15.224;2023-04-25T07:53:11;6.80;;;5.50;;
16159;SDS011;8185;57.818;15.224;2023-04-25T07:55:39;8.07;;;6.07;;
16159;SDS011;8185;57.818;15.224;2023-04-25T07:58:07;6.27;;;5.70;;
16159;SDS011;8185;57.818;15.224;2023-04-25T08:00:35;7.10;;;5.03;;
16159;SDS011;8185;57.818;15.224;2023-04-25T08:03:03;6.73;;;6.10;;
16159;SDS011;8185;57.818;15.224;2023-04-25T08:05:31;6.03;;;5.43;;
16159;SDS011;8185;57.818;15.224;2023-04-25T08:07:58;6.90;;;5.50;;
16159;SDS011;8185;57.818;15.224;2023-04-25T08:10:26;5.93;;;5.33;;
16159;SDS011;8185;57.818;15.224;2023-04-25T08:12:53;7.23;;;6.03;;
16159;SDS011;8185;57.818;15.224;2023-04-25T08:15:22;9.13;;;7.00;;
16159;SDS011;8185;57.818;15.224;2023-04-25T08:17:49;7.20;;;6.50;;
16159;SDS011;8185;57.818;15.224;2023-04-25T08:20:16;6.90;;;5.80;;
16159;SDS011;8185;57.818;15.224;2023-04-25T08:22:43;5.60;;;5.03;;
16159;SDS011;8185;57.818;15.224;2023-04-25T08:25:11;5.33;;;4.73;;
16159;SDS011;8185;57.818;15.224;2023-04-25T08:27:38;5.70;;;5.20;;
16159;SDS011;8185;57.818;15.224;2023-04-25T08:30:06;6.10;;;5.50;;
16159;SDS011;8185;57.818;15.224;2023-04-25T08:32:36;6.67;;;5.67;;
16159;SDS011;8185;57.818;15.224;2023-04-25T08:35:04;6.40;;;5.40;;
16159;SDS011;8185;57.818;15.224;2023-04-25T08:37:32;7.23;;;5.33;;
16159;SDS011;8185;57.818;15.224;2023-04-25T08:40:00;7.10;;;5.40;;
16159;SDS011;8185;57.818;15.224;2023-04-25T08:42:28;5.30;;;4.80;;
16159;SDS011;8185;57.818;15.224;2023-04-25T08:44:59;6.50;;;5.37;;
16159;SDS011;8185;57.818;15.224;2023-04-25T08:47:28;5.47;;;4.87;;
16159;SDS011;8185;57.818;15.224;2023-04-25T08:50:00;6.43;;;5.83;;
16159;SDS011;8185;57.818;15.224;2023-04-25T08:52:32;5.37;;;4.87;;
16159;SDS011;8185;57.818;15.224;2023-04-25T08:55:03;6.13;;;5.07;;
16159;SDS011;8185;57.818;15.224;2023-04-25T08:57:34;5.37;;;4.43;;
16159;SDS011;8185;57.818;15.224;2023-04-25T09:00:02;5.10;;;4.60;;
16159;SDS011;8185;57.818;15.224;2023-04-25T09:02:30;5.50;;;4.97;;
16159;SDS011;8185;57.818;15.224;2023-04-25T09:05:00;4.50;;;3.70;;
16159;SDS011;8185;57.818;15.224;2023-04-25T09:07:27;6.47;;;4.20;;
16159;SDS011;8185;57.818;15.224;2023-04-25T09:09:54;4.20;;;3.80;;
16159;SDS011;8185;57.818;15.224;2023-04-25T09:12:22;3.90;;;3.13;;
16159;SDS011;8185;57.818;15.224;2023-04-25T09:15:00;3.37;;;3.07;;
16159;SDS011;8185;57.818;15.224;2023-04-25T09:17:32;2.53;;;2.33;;
16159;SDS011;8185;57.818;15.224;2023-04-25T09:20:07;2.73;;;2.53;;
16159;SDS011;8185;57.818;15.224;2023-04-25T09:22:36;2.67;;;2.40;;
16159;SDS011;8185;57.818;15.224;2023-04-25T09:25:07;2.50;;;2.27;;
16159;SDS011;8185;57.818;15.224;2023-04-25T09:27:35;2.53;;;2.10;;
16159;SDS011;8185;57.818;15.224;2023-04-25T09:30:15;2.37;;;2.17;;
16159;SDS011;8185;57.818;15.224;2023-04-25T09:32:43;1.73;;;1.60;;
16159;SDS011;8185;57.818;15.224;2023-04-25T09:35:12;2.20;;;2.00;;
16159;SDS011;8185;57.818;15.224;2023-04-25T09:37:51;3.03;;;2.00;;
16159;SDS011;8185;57.818;15.224;2023-04-25T09:40:18;1.70;;;1.60;;
16159;SDS011;8185;57.818;15.224;2023-04-25T09:42:45;1.93;;;1.73;;
16159;SDS011;8185;57.818;15.224;2023-04-25T09:45:12;1.60;;;1.50;;
16159;SDS011;8185;57.818;15.224;2023-04-25T09:47:41;2.20;;;1.80;;
16159;SDS011;8185;57.818;15.224;2023-04-25T09:50:15;1.73;;;1.63;;
16159;SDS011;8185;57.818;15.224;2023-04-25T09:52:44;1.67;;;1.40;;
16159;SDS011;8185;57.818;15.224;2023-04-25T09:55:12;2.07;;;1.50;;
16159;SDS011;8185;57.818;15.224;2023-04-25T09:57:40;1.60;;;1.50;;
16159;SDS011;8185;57.818;15.224;2023-04-25T10:00:08;1.40;;;1.30;;
16159;SDS011;8185;57.818;15.224;2023-04-25T10:02:38;1.30;;;1.20;;
16159;SDS011;8185;57.818;15.224;2023-04-25T10:05:09;1.53;;;1.03;;
16159;SDS011;8185;57.818;15.224;2023-04-25T10:07:39;1.47;;;1.10;;
16159;SDS011;8185;57.818;15.224;2023-04-25T10:10:07;1.30;;;1.20;;
16159;SDS011;8185;57.818;15.224;2023-04-25T10:12:35;2.17;;;1.20;;
16159;SDS011;8185;57.818;15.224;2023-04-25T10:15:05;1.17;;;0.90;;
16159;SDS011;8185;57.818;15.224;2023-04-25T10:17:35;1.27;;;1.17;;
16159;SDS011;8185;57.818;15.224;2023-04-25T10:20:02;1.40;;;1.30;;
16159;SDS011;8185;57.818;15.224;2023-04-25T10:22:34;1.33;;;0.90;;
16159;SDS011;8185;57.818;15.224;2023-04-25T10:25:05;1.30;;;1.07;;
16159;SDS011;8185;57.818;15.224;2023-04-25T10:27:34;1.47;;;0.80;;
16159;SDS011;8185;57.818;15.224;2023-04-25T10:30:02;1.70;;;0.80;;
16159;SDS011;8185;57.818;15.224;2023-04-25T10:32:31;0.80;;;0.73;;
16159;SDS011;8185;57.818;15.224;2023-04-25T10:35:09;1.17;;;0.80;;
16159;SDS011;8185;57.818;15.224;2023-04-25T10:37:38;0.70;;;0.70;;
16159;SDS011;8185;57.818;15.224;2023-04-25T10:40:24;0.80;;;0.70;;
16159;SDS011;8185;57.818;15.224;2023-04-25T10:42:52;1.30;;;0.70;;
16159;SDS011;8185;57.818;15.224;2023-04-25T10:45:19;0.70;;;0.60;;
16159;SDS011;8185;57.818;15.224;2023-04-25T10:47:47;0.63;;;0.47;;
16159;SDS011;8185;57.818;15.224;2023-04-25T10:50:14;0.70;;;0.60;;
16159;SDS011;8185;57.818;15.224;2023-04-25T10:52:42;0.53;;;0.50;;
16159;SDS011;8185;57.818;15.224;2023-04-25T10:55:09;0.80;;;0.57;;
16159;SDS011;8185;57.818;15.224;2023-04-25T10:57:39;2.43;;;0.83;;
16159;SDS011;8185;57.818;15.224;2023-04-25T11:00:11;1.13;;;0.60;;
16159;SDS011;8185;57.818;15.224;2023-04-25T11:02:40;2.10;;;0.63;;
16159;SDS011;8185;57.818;15.224;2023-04-25T11:05:10;1.03;;;0.70;;
16159;SDS011;8185;57.818;15.224;2023-04-25T11:07:44;6.20;;;0.93;;
16159;SDS011;8185;57.818;15.224;2023-04-25T11:10:16;0.80;;;0.73;;
16159;SDS011;8185;57.818;15.224;2023-04-25T11:12:45;0.60;;;0.60;;
16159;SDS011;8185;57.818;15.224;2023-04-25T11:15:13;0.43;;;0.43;;
16159;SDS011;8185;57.818;15.224;2023-04-25T11:17:41;1.10;;;0.60;;
16159;SDS011;8185;57.818;15.224;2023-04-25T11:20:10;0.63;;;0.63;;
16159;SDS011;8185;57.818;15.224;2023-04-25T11:22:38;1.23;;;0.60;;
16159;SDS011;8185;57.818;15.224;2023-04-25T11:25:08;0.83;;;0.40;;
16159;SDS011;8185;57.818;15.224;2023-04-25T11:30:24;0.60;;;0.40;;
16159;SDS011;8185;57.818;15.224;2023-04-25T11:32:52;0.40;;;0.30;;
16159;SDS011;8185;57.818;15.224;2023-04-25T11:35:20;0.63;;;0.37;;
16159;SDS011;8185;57.818;15.224;2023-04-25T11:37:48;1.10;;;0.40;;
16159;SDS011;8185;57.818;15.224;2023-04-25T11:40:16;0.40;;;0.30;;
16159;SDS011;8185;57.818;15.224;2023-04-25T11:42:43;0.40;;;0.40;;
16159;SDS011;8185;57.818;15.224;2023-04-25T11:45:13;0.50;;;0.30;;
16159;SDS011;8185;57.818;15.224;2023-04-25T11:47:41;0.60;;;0.30;;
16159;SDS011;8185;57.818;15.224;2023-04-25T11:50:08;0.40;;;0.40;;
16159;SDS011;8185;57.818;15.224;2023-04-25T11:52:37;0.37;;;0.30;;
16159;SDS011;8185;57.818;15.224;2023-04-25T11:55:06;0.87;;;0.30;;
16159;SDS011;8185;57.818;15.224;2023-04-25T11:57:34;0.70;;;0.40;;
16159;SDS011;8185;57.818;15.224;2023-04-25T12:00:06;0.40;;;0.30;;
16159;SDS011;8185;57.818;15.224;2023-04-25T12:02:37;0.53;;;0.33;;
16159;SDS011;8185;57.818;15.224;2023-04-25T12:05:08;0.40;;;0.40;;
16159;SDS011;8185;57.818;15.224;2023-04-25T12:07:36;0.73;;;0.40;;
16159;SDS011;8185;57.818;15.224;2023-04-25T12:10:04;0.60;;;0.60;;
16159;SDS011;8185;57.818;15.224;2023-04-25T12:12:33;0.50;;;0.50;;
16159;SDS011;8185;57.818;15.224;2023-04-25T12:15:10;0.50;;;0.40;;
16159;SDS011;8185;57.818;15.224;2023-04-25T12:17:44;0.70;;;0.50;;
16159;SDS011;8185;57.818;15.224;2023-04-25T12:20:12;1.37;;;0.50;;
16159;SDS011;8185;57.818;15.224;2023-04-25T12:22:41;0.50;;;0.40;;
16159;SDS011;8185;57.818;15.224;2023-04-25T12:25:12;0.93;;;0.40;;
16159;SDS011;8185;57.818;15.224;2023-04-25T12:27:39;0.50;;;0.40;;
16159;SDS011;8185;57.818;15.224;2023-04-25T12:30:09;2.83;;;0.47;;
16159;SDS011;8185;57.818;15.224;2023-04-25T12:32:36;0.40;;;0.40;;
16159;SDS011;8185;57.818;15.224;2023-04-25T12:35:06;0.37;;;0.30;;
16159;SDS011;8185;57.818;15.224;2023-04-25T12:37:34;0.67;;;0.40;;
16159;SDS011;8185;57.818;15.224;2023-04-25T12:40:01;0.50;;;0.50;;
16159;SDS011;8185;57.818;15.224;2023-04-25T12:42:29;0.60;;;0.40;;
16159;SDS011;8185;57.818;15.224;2023-04-25T12:44:56;0.70;;;0.60;;
16159;SDS011;8185;57.818;15.224;2023-04-25T12:47:24;0.50;;;0.50;;
16159;SDS011;8185;57.818;15.224;2023-04-25T12:49:51;0.50;;;0.40;;
16159;SDS011;8185;57.818;15.224;2023-04-25T12:52:20;0.50;;;0.30;;
16159;SDS011;8185;57.818;15.224;2023-04-25T12:54:47;0.60;;;0.30;;
16159;SDS011;8185;57.818;15.224;2023-04-25T12:57:14;0.67;;;0.50;;
16159;SDS011;8185;57.818;15.224;2023-04-25T12:59:41;0.93;;;0.93;;
16159;SDS011;8185;57.818;15.224;2023-04-25T13:02:08;0.63;;;0.60;;
16159;SDS011;8185;57.818;15.224;2023-04-25T13:04:36;0.63;;;0.60;;
16159;SDS011;8185;57.818;15.224;2023-04-25T13:07:03;0.57;;;0.53;;
16159;SDS011;8185;57.818;15.224;2023-04-25T13:09:32;0.73;;;0.60;;
16159;SDS011;8185;57.818;15.224;2023-04-25T13:11:59;0.77;;;0.40;;
16159;SDS011;8185;57.818;15.224;2023-04-25T13:14:26;0.57;;;0.57;;
16159;SDS011;8185;57.818;15.224;2023-04-25T13:16:54;1.57;;;0.40;;
16159;SDS011;8185;57.818;15.224;2023-04-25T13:19:21;0.60;;;0.57;;
16159;SDS011;8185;57.818;15.224;2023-04-25T13:21:48;0.93;;;0.53;;
16159;SDS011;8185;57.818;15.224;2023-04-25T13:24:16;0.97;;;0.50;;
16159;SDS011;8185;57.818;15.224;2023-04-25T13:26:44;4.03;;;3.70;;
16159;SDS011;8185;57.818;15.224;2023-04-25T13:29:11;0.70;;;0.70;;
16159;SDS011;8185;57.818;15.224;2023-04-25T13:31:39;3.07;;;2.23;;
16159;SDS011;8185;57.818;15.224;2023-04-25T13:34:06;0.47;;;0.47;;
16159;SDS011;8185;57.818;15.224;2023-04-25T13:36:33;0.40;;;0.30;;
16159;SDS011;8185;57.818;15.224;2023-04-25T13:39:00;0.80;;;0.63;;
16159;SDS011;8185;57.818;15.224;2023-04-25T13:41:29;1.07;;;0.97;;
16159;SDS011;8185;57.818;15.224;2023-04-25T13:43:58;0.67;;;0.67;;
16159;SDS011;8185;57.818;15.224;2023-04-25T13:46:26;0.40;;;0.30;;
16159;SDS011;8185;57.818;15.224;2023-04-25T13:48:53;0.53;;;0.30;;
16159;SDS011;8185;57.818;15.224;2023-04-25T13:51:20;1.70;;;0.30;;
16159;SDS011;8185;57.818;15.224;2023-04-25T13:53:48;0.60;;;0.30;;
16159;SDS011;8185;57.818;15.224;2023-04-25T13:56:15;2.50;;;0.50;;
16159;SDS011;8185;57.818;15.224;2023-04-25T13:58:44;0.50;;;0.40;;
16159;SDS011;8185;57.818;15.224;2023-04-25T14:01:13;0.40;;;0.30;;
16159;SDS011;8185;57.818;15.224;2023-04-25T14:03:41;0.40;;;0.30;;
16159;SDS011;8185;57.818;15.224;2023-04-25T14:06:08;0.67;;;0.40;;
16159;SDS011;8185;57.818;15.224;2023-04-25T14:08:36;0.40;;;0.40;;
16159;SDS011;8185;57.818;15.224;2023-04-25T14:11:03;6.33;;;5.77;;
16159;SDS011;8185;57.818;15.224;2023-04-25T14:13:30;10.83;;;8.20;;
16159;SDS011;8185;57.818;15.224;2023-04-25T14:15:58;0.60;;;0.60;;
16159;SDS011;8185;57.818;15.224;2023-04-25T14:18:27;3.40;;;2.77;;
16159;SDS011;8185;57.818;15.224;2023-04-25T14:20:54;5.40;;;4.67;;
16159;SDS011;8185;57.818;15.224;2023-04-25T14:23:21;1.00;;;0.73;;
16159;SDS011;8185;57.818;15.224;2023-04-25T14:25:49;2.90;;;0.57;;
16159;SDS011;8185;57.818;15.224;2023-04-25T14:28:16;0.73;;;0.50;;
16159;SDS011;8185;57.818;15.224;2023-04-25T14:30:43;2.17;;;0.80;;
16159;SDS011;8185;57.818;15.224;2023-04-25T14:33:10;0.87;;;0.70;;
16159;SDS011;8185;57.818;15.224;2023-04-25T14:35:40;1.40;;;1.00;;
16159;SDS011;8185;57.818;15.224;2023-04-25T14:38:07;1.13;;;0.70;;
16159;SDS011;8185;57.818;15.224;2023-04-25T14:40:35;0.87;;;0.83;;
16159;SDS011;8185;57.818;15.224;2023-04-25T14:43:03;1.00;;;0.80;;
16159;SDS011;8185;57.818;15.224;2023-04-25T14:45:30;1.43;;;0.93;;
16159;SDS011;8185;57.818;15.224;2023-04-25T14:47:57;1.33;;;1.17;;
16159;SDS011;8185;57.818;15.224;2023-04-25T14:50:25;6.93;;;1.30;;
16159;SDS011;8185;57.818;15.224;2023-04-25T14:52:53;1.20;;;1.10;;
16159;SDS011;8185;57.818;15.224;2023-04-25T14:55:23;1.60;;;1.23;;